createdAt,value
2018-07-02T00:00:27.533Z,0.70
2018-07-02T00:02:56.218Z,0.60
2018-07-02T00:05:32.285Z,0.60
2018-07-02T00:08:00.761Z,0.80
2018-07-02T00:10:29.230Z,0.60
2018-07-02T00:12:57.960Z,0.80
2018-07-02T00:15:26.925Z,0.60
2018-07-02T00:17:55.550Z,0.70
2018-07-02T00:20:24.030Z,0.80
2018-07-02T00:22:52.451Z,0.50
2018-07-02T00:25:21.007Z,0.60
2018-07-02T00:27:49.626Z,0.60
2018-07-02T00:30:18.177Z,0.40
2018-07-02T00:32:46.646Z,0.60
2018-07-02T00:35:15.129Z,0.73
2018-07-02T00:37:43.577Z,0.70
2018-07-02T00:40:12.126Z,0.60
2018-07-02T00:42:40.705Z,0.70
2018-07-02T00:45:09.241Z,0.70
2018-07-02T00:47:38.905Z,0.50
2018-07-02T00:50:07.542Z,0.83
2018-07-02T00:52:36.042Z,0.90
2018-07-02T00:55:04.548Z,0.60
2018-07-02T00:57:33.287Z,0.60
2018-07-02T01:00:09.885Z,0.50
2018-07-02T01:02:38.589Z,0.70
2018-07-02T01:05:07.117Z,0.60
2018-07-02T01:07:35.602Z,0.60
2018-07-02T01:10:04.091Z,0.50
2018-07-02T01:12:32.722Z,0.60
2018-07-02T01:15:01.376Z,0.50
2018-07-02T01:17:29.953Z,0.50
2018-07-02T01:19:58.444Z,0.70
2018-07-02T01:22:26.966Z,0.40
2018-07-02T01:24:55.679Z,0.50
2018-07-02T01:27:24.125Z,0.50
2018-07-02T01:29:52.854Z,0.50
2018-07-02T01:32:21.350Z,0.60
2018-07-02T01:34:49.819Z,0.50
2018-07-02T01:37:18.273Z,0.40
2018-07-02T01:39:46.750Z,0.60
2018-07-02T01:42:15.216Z,0.40
2018-07-02T01:44:43.719Z,0.50
2018-07-02T01:47:12.201Z,0.40
2018-07-02T01:49:40.949Z,0.70
2018-07-02T01:52:09.377Z,0.60
2018-07-02T01:54:38.021Z,0.50
2018-07-02T01:57:06.794Z,0.67
2018-07-02T01:59:35.327Z,0.50
2018-07-02T02:02:03.800Z,0.53
2018-07-02T02:04:32.332Z,0.50
2018-07-02T02:07:00.858Z,0.50
2018-07-02T02:09:29.365Z,0.50
2018-07-02T02:11:57.914Z,0.70
2018-07-02T02:14:26.549Z,0.30
2018-07-02T02:16:55.098Z,0.60
2018-07-02T02:19:23.594Z,0.53
2018-07-02T02:21:52.137Z,0.57
2018-07-02T02:24:20.577Z,0.50
2018-07-02T02:26:49.109Z,0.50
2018-07-02T02:29:17.625Z,0.40
2018-07-02T02:31:46.086Z,0.57
2018-07-02T02:34:14.565Z,0.43
2018-07-02T02:36:43.034Z,0.50
2018-07-02T02:39:11.850Z,0.47
2018-07-02T02:41:40.519Z,0.60
2018-07-02T02:44:09.054Z,0.50
2018-07-02T02:46:37.623Z,0.43
2018-07-02T02:49:06.122Z,0.40
2018-07-02T02:51:34.574Z,0.50
2018-07-02T02:54:03.023Z,0.67
2018-07-02T02:56:31.525Z,0.40
2018-07-02T02:59:00.040Z,0.53
2018-07-02T03:01:28.559Z,0.40
2018-07-02T03:03:57.106Z,0.30
2018-07-02T03:06:25.577Z,0.50
2018-07-02T03:08:54.077Z,0.50
2018-07-02T03:11:22.566Z,0.57
2018-07-02T03:13:51.253Z,0.60
2018-07-02T03:16:19.981Z,0.50
2018-07-02T03:18:48.433Z,0.47
2018-07-02T03:21:16.929Z,0.60
2018-07-02T03:23:45.401Z,0.40
2018-07-02T03:26:14.170Z,0.40
2018-07-02T03:28:42.677Z,0.50
2018-07-02T03:31:11.069Z,0.50
2018-07-02T03:33:39.515Z,0.30
2018-07-02T03:36:07.993Z,0.47
2018-07-02T03:38:36.476Z,0.40
2018-07-02T03:41:04.617Z,0.50
2018-07-02T03:43:33.089Z,0.43
2018-07-02T03:46:01.835Z,0.50
2018-07-02T03:48:30.308Z,0.30
2018-07-02T03:50:58.723Z,0.63
2018-07-02T03:53:27.233Z,0.57
2018-07-02T03:55:55.725Z,0.60
2018-07-02T03:58:24.338Z,0.50
2018-07-02T04:00:52.841Z,0.50
2018-07-02T04:03:21.345Z,0.30
2018-07-02T04:05:49.845Z,0.60
2018-07-02T04:08:18.562Z,0.30
2018-07-02T04:10:47.125Z,0.50
2018-07-02T04:13:15.873Z,0.50
2018-07-02T04:15:44.490Z,0.43
2018-07-02T04:18:12.981Z,0.40
2018-07-02T04:20:41.480Z,0.50
2018-07-02T04:23:10.014Z,0.40
2018-07-02T04:25:38.453Z,0.50
2018-07-02T04:28:07.099Z,0.30
2018-07-02T04:30:35.565Z,0.40
2018-07-02T04:33:04.055Z,0.43
2018-07-02T04:35:32.692Z,0.40
2018-07-02T04:38:00.888Z,0.40
2018-07-02T04:40:29.706Z,0.37
2018-07-02T04:42:58.032Z,0.60
2018-07-02T04:45:26.197Z,0.33
2018-07-02T04:47:54.730Z,0.40
2018-07-02T04:50:23.237Z,0.33
2018-07-02T04:52:51.729Z,0.60
2018-07-02T04:55:20.254Z,0.40
2018-07-02T04:57:48.681Z,0.50
2018-07-02T05:00:17.115Z,0.50
2018-07-02T05:02:45.653Z,0.40
2018-07-02T05:05:14.275Z,0.50
2018-07-02T05:07:42.800Z,0.50
2018-07-02T05:10:11.333Z,0.40
2018-07-02T05:12:39.927Z,0.50
2018-07-02T05:15:08.377Z,0.60
2018-07-02T05:17:36.933Z,0.60
2018-07-02T05:20:05.518Z,0.50
2018-07-02T05:22:34.196Z,0.40
2018-07-02T05:25:02.541Z,0.40
2018-07-02T05:27:31.254Z,0.40
2018-07-02T05:29:59.789Z,0.50
2018-07-02T05:32:28.322Z,0.43
2018-07-02T05:34:56.839Z,0.40
2018-07-02T05:37:25.271Z,0.50
2018-07-02T05:39:53.685Z,0.30
2018-07-02T05:42:22.136Z,0.40
2018-07-02T05:44:50.568Z,0.60
2018-07-02T05:47:18.970Z,0.40
2018-07-02T05:49:47.377Z,0.37
2018-07-02T05:52:16.069Z,0.40
2018-07-02T05:54:44.461Z,0.30
2018-07-02T05:57:12.845Z,0.30
2018-07-02T05:59:41.249Z,0.33
2018-07-02T06:02:09.622Z,0.60
2018-07-02T06:04:38.059Z,0.30
2018-07-02T06:07:06.677Z,0.50
2018-07-02T06:09:35.182Z,0.40
2018-07-02T06:12:03.613Z,0.30
2018-07-02T06:14:32.039Z,0.50
2018-07-02T06:17:00.466Z,0.40
2018-07-02T06:19:28.869Z,0.40
2018-07-02T06:21:57.265Z,0.33
2018-07-02T06:24:25.662Z,0.30
2018-07-02T06:26:54.330Z,0.37
2018-07-02T06:29:22.749Z,0.30
2018-07-02T06:31:51.150Z,0.40
2018-07-02T06:34:19.619Z,0.50
2018-07-02T06:36:48.033Z,0.30
2018-07-02T06:39:16.453Z,0.30
2018-07-02T06:41:44.853Z,0.40
2018-07-02T06:44:13.295Z,0.40
2018-07-02T06:46:41.669Z,0.40
2018-07-02T06:49:10.105Z,0.40
2018-07-02T06:51:38.489Z,0.40
2018-07-02T06:54:06.884Z,0.30
2018-07-02T06:56:35.385Z,0.50
2018-07-02T06:59:03.771Z,0.50
2018-07-02T07:01:32.169Z,0.37
2018-07-02T07:04:00.538Z,0.30
2018-07-02T07:06:28.947Z,0.60
2018-07-02T07:08:57.341Z,0.40
2018-07-02T07:11:25.737Z,0.40
2018-07-02T07:13:54.168Z,0.40
2018-07-02T07:16:22.699Z,0.50
2018-07-02T07:18:51.252Z,0.60
2018-07-02T07:21:19.625Z,0.50
2018-07-02T07:23:48.057Z,0.30
2018-07-02T07:26:16.453Z,0.37
2018-07-02T07:28:44.910Z,0.40
2018-07-02T07:31:13.301Z,0.40
2018-07-02T07:33:41.718Z,0.40
2018-07-02T07:36:10.136Z,0.30
2018-07-02T07:38:38.556Z,0.47
2018-07-02T07:41:07.001Z,0.47
2018-07-02T07:43:35.430Z,0.40
2018-07-02T07:46:03.809Z,0.40
2018-07-02T07:48:32.192Z,0.40
2018-07-02T07:51:00.598Z,0.40
2018-07-02T07:53:29.147Z,0.60
2018-07-02T07:55:57.705Z,0.30
2018-07-02T07:58:26.100Z,0.50
2018-07-02T08:00:54.546Z,0.50
2018-07-02T08:03:22.990Z,0.30
2018-07-02T08:05:52.138Z,0.40
2018-07-02T08:08:20.611Z,0.30
2018-07-02T08:10:49.147Z,0.43
2018-07-02T08:13:17.654Z,0.27
2018-07-02T08:15:45.801Z,0.50
2018-07-02T08:18:14.518Z,0.40
2018-07-02T08:20:42.971Z,0.40
2018-07-02T08:23:11.432Z,0.27
2018-07-02T08:25:39.902Z,0.40
2018-07-02T08:28:08.298Z,0.40
2018-07-02T08:30:36.817Z,0.40
2018-07-02T08:33:05.260Z,0.30
2018-07-02T08:35:33.676Z,0.40
2018-07-02T08:38:02.055Z,0.37
2018-07-02T08:40:31.404Z,0.30
2018-07-02T08:42:59.933Z,0.50
2018-07-02T08:45:28.402Z,0.40
2018-07-02T08:47:56.942Z,0.47
2018-07-02T08:50:25.379Z,0.40
2018-07-02T08:52:53.796Z,0.40
2018-07-02T08:55:22.240Z,0.50
2018-07-02T08:57:50.632Z,0.40
2018-07-02T09:00:19.058Z,0.40
2018-07-02T09:02:47.446Z,0.47
2018-07-02T09:05:15.912Z,0.50
2018-07-02T09:07:44.297Z,0.47
2018-07-02T09:10:12.706Z,0.40
2018-07-02T09:12:41.102Z,0.37
2018-07-02T09:15:09.500Z,0.40
2018-07-02T09:17:38.048Z,0.30
2018-07-02T09:20:06.591Z,0.40
2018-07-02T09:22:34.977Z,0.50
2018-07-02T09:25:03.361Z,0.50
2018-07-02T09:27:31.840Z,0.30
2018-07-02T09:30:00.284Z,0.40
2018-07-02T09:32:28.909Z,0.50
2018-07-02T09:34:57.438Z,0.37
2018-07-02T09:37:25.833Z,0.40
2018-07-02T09:39:54.345Z,0.40
2018-07-02T09:57:37.411Z,0.30
2018-07-02T10:00:05.912Z,0.47
2018-07-02T10:02:34.379Z,0.40
2018-07-02T10:05:03.019Z,0.47
2018-07-02T10:07:31.359Z,0.40
2018-07-02T10:09:59.765Z,0.50
2018-07-02T10:12:28.379Z,0.60
2018-07-02T10:14:56.810Z,0.37
2018-07-02T10:17:25.290Z,0.70
2018-07-02T10:19:53.701Z,0.40
2018-07-02T10:22:22.305Z,0.50
2018-07-02T10:24:50.741Z,0.50
2018-07-02T10:27:19.224Z,0.40
2018-07-02T10:29:47.671Z,0.60
2018-07-02T10:32:15.909Z,0.43
2018-07-02T10:34:44.507Z,0.53
2018-07-02T10:37:13.455Z,0.60
2018-07-02T10:39:42.227Z,0.47
2018-07-02T10:42:11.271Z,0.43
2018-07-02T10:44:40.452Z,0.37
2018-07-02T10:47:08.842Z,0.50
2018-07-02T10:49:37.298Z,0.63
2018-07-02T10:52:05.713Z,0.33
2018-07-02T10:54:34.093Z,0.40
2018-07-02T10:57:02.414Z,0.40
2018-07-02T10:59:30.666Z,0.40
2018-07-02T11:01:59.208Z,0.50
2018-07-02T11:04:27.664Z,0.53
2018-07-02T11:06:56.349Z,0.40
2018-07-02T11:09:27.144Z,0.57
2018-07-02T11:11:55.736Z,0.57
2018-07-02T11:14:24.524Z,0.40
2018-07-02T11:16:52.956Z,0.70
2018-07-02T11:19:21.931Z,0.60
2018-07-02T11:21:52.874Z,0.30
2018-07-02T11:24:21.752Z,0.60
2018-07-02T11:26:50.317Z,0.50
2018-07-02T11:29:18.732Z,0.43
2018-07-02T11:31:47.049Z,0.60
2018-07-02T11:34:15.439Z,0.70
2018-07-02T11:36:43.938Z,0.50
2018-07-02T11:39:12.440Z,0.50
2018-07-02T11:41:42.888Z,0.57
2018-07-02T11:44:12.382Z,0.60
2018-07-02T11:46:40.829Z,0.47
2018-07-02T11:49:09.043Z,0.57
2018-07-02T11:51:37.816Z,0.43
2018-07-02T11:54:06.913Z,0.50
2018-07-02T11:56:37.586Z,0.50
2018-07-02T11:59:06.253Z,0.60
2018-07-02T12:01:35.946Z,0.47
2018-07-02T12:04:05.822Z,0.40
2018-07-02T12:06:34.264Z,0.40
2018-07-02T12:09:02.725Z,0.50
2018-07-02T12:11:31.108Z,0.50
2018-07-02T12:13:59.490Z,0.80
2018-07-02T12:16:27.869Z,0.70
2018-07-02T12:18:56.346Z,0.67
2018-07-02T12:21:24.810Z,0.60
2018-07-02T12:23:53.203Z,0.80
2018-07-02T12:26:21.809Z,0.40
2018-07-02T12:28:50.290Z,0.60
2018-07-02T12:31:18.694Z,0.70
2018-07-02T12:33:47.377Z,0.77
2018-07-02T12:36:15.520Z,0.60
2018-07-02T12:38:44.416Z,0.57
2018-07-02T12:41:13.355Z,0.60
2018-07-02T12:43:41.813Z,0.40
2018-07-02T12:46:10.496Z,0.50
2018-07-02T12:48:38.979Z,0.50
2018-07-02T12:51:07.617Z,0.70
2018-07-02T12:53:36.263Z,0.70
2018-07-02T12:56:04.701Z,0.50
2018-07-02T12:58:33.343Z,0.73
2018-07-02T13:01:01.784Z,0.53
2018-07-02T13:03:30.424Z,0.80
2018-07-02T13:05:58.819Z,0.70
2018-07-02T13:08:27.242Z,0.43
2018-07-02T13:10:55.809Z,0.70
2018-07-02T13:13:24.276Z,0.53
2018-07-02T13:15:52.721Z,0.93
2018-07-02T13:18:21.152Z,0.80
2018-07-02T13:20:49.654Z,0.60
2018-07-02T13:23:18.037Z,0.70
2018-07-02T13:25:46.628Z,0.93
2018-07-02T13:28:15.085Z,0.77
2018-07-02T13:30:43.605Z,0.73
2018-07-02T13:33:12.649Z,0.70
2018-07-02T13:35:41.106Z,0.60
2018-07-02T13:38:09.543Z,0.70
2018-07-02T13:40:38.256Z,0.80
2018-07-02T13:43:06.829Z,0.77
2018-07-02T13:45:35.296Z,0.80
2018-07-02T13:48:03.852Z,0.83
2018-07-02T13:50:32.436Z,0.70
2018-07-02T13:53:01.317Z,0.50
2018-07-02T13:55:30.974Z,0.73
2018-07-02T13:58:00.678Z,0.90
2018-07-02T14:00:30.169Z,0.63
2018-07-02T14:02:59.369Z,0.80
2018-07-02T14:05:28.645Z,0.60
2018-07-02T14:07:57.442Z,0.77
2018-07-02T14:10:27.306Z,0.40
2018-07-02T14:12:57.402Z,0.80
2018-07-02T14:15:26.012Z,0.70
2018-07-02T14:17:56.236Z,0.60
2018-07-02T14:20:24.584Z,0.80
2018-07-02T14:22:53.161Z,0.80
2018-07-02T14:25:23.048Z,0.60
2018-07-02T14:27:52.889Z,0.70
2018-07-02T14:30:21.868Z,0.73
2018-07-02T14:32:51.591Z,0.80
2018-07-02T14:35:22.091Z,0.90
2018-07-02T14:37:52.032Z,0.80
2018-07-02T14:40:21.218Z,0.70
2018-07-02T14:42:49.733Z,0.80
2018-07-02T14:45:18.473Z,0.73
2018-07-02T14:47:46.842Z,0.73
2018-07-02T14:50:15.318Z,1.07
2018-07-02T14:52:45.066Z,0.87
2018-07-02T14:55:14.386Z,0.80
2018-07-02T14:57:42.894Z,0.70
2018-07-02T15:00:12.317Z,0.80
2018-07-02T15:02:40.790Z,0.80
2018-07-02T15:05:13.297Z,0.80
2018-07-02T15:07:42.432Z,0.80
2018-07-02T15:10:12.251Z,0.63
2018-07-02T15:12:40.813Z,1.10
2018-07-02T15:15:09.583Z,0.70
2018-07-02T15:17:40.737Z,0.90
2018-07-02T15:20:09.317Z,0.60
2018-07-02T15:22:37.875Z,0.93
2018-07-02T15:25:06.527Z,0.70
2018-07-02T15:27:35.049Z,0.93
2018-07-02T15:30:05.603Z,0.90
2018-07-02T15:32:36.321Z,0.80
2018-07-02T15:35:06.807Z,0.70
2018-07-02T15:37:37.349Z,0.87
2018-07-02T15:40:06.066Z,0.90
2018-07-02T15:42:35.814Z,0.80
2018-07-02T15:45:05.388Z,0.73
2018-07-02T15:47:34.603Z,0.83
2018-07-02T15:50:04.567Z,0.90
2018-07-02T15:52:34.437Z,0.87
2018-07-02T15:55:05.014Z,0.70
2018-07-02T15:57:34.393Z,1.00
2018-07-02T16:00:03.906Z,0.77
2018-07-02T16:02:33.504Z,0.73
2018-07-02T16:05:06.190Z,0.80
2018-07-02T16:07:38.904Z,0.80
2018-07-02T16:10:11.678Z,0.70
2018-07-02T16:12:41.730Z,1.00
2018-07-02T16:15:10.511Z,0.90
2018-07-02T16:17:40.326Z,0.67
2018-07-02T16:20:08.906Z,0.70
2018-07-02T16:22:38.859Z,0.93
2018-07-02T16:25:09.308Z,0.70
2018-07-02T16:27:38.814Z,0.80
2018-07-02T16:30:09.589Z,1.20
2018-07-02T16:32:38.195Z,0.93
2018-07-02T16:35:06.602Z,0.87
2018-07-02T16:37:35.029Z,0.70
2018-07-02T16:40:03.884Z,0.80
2018-07-02T16:42:33.534Z,0.87
2018-07-02T16:45:02.294Z,0.90
2018-07-02T16:47:30.774Z,0.70
2018-07-02T16:49:59.781Z,0.80
2018-07-02T16:52:28.653Z,0.77
2018-07-02T16:54:57.527Z,0.70
2018-07-02T16:57:26.230Z,0.70
2018-07-02T16:59:54.660Z,0.60
2018-07-02T17:02:22.925Z,0.87
2018-07-02T17:04:51.403Z,0.63
2018-07-02T17:07:19.927Z,0.60
2018-07-02T17:09:48.175Z,1.00
2018-07-02T17:12:16.708Z,0.70
2018-07-02T17:14:46.534Z,0.67
2018-07-02T17:17:16.497Z,0.70
2018-07-02T17:19:45.115Z,1.00
2018-07-02T17:22:14.410Z,0.70
2018-07-02T17:24:42.654Z,0.63
2018-07-02T17:27:11.786Z,1.00
2018-07-02T17:29:40.509Z,0.80
2018-07-02T17:32:10.572Z,0.73
2018-07-02T17:34:39.334Z,0.80
2018-07-02T17:37:07.901Z,0.70
2018-07-02T17:39:37.360Z,0.73
2018-07-02T17:42:06.186Z,0.60
2018-07-02T17:44:34.713Z,0.83
2018-07-02T17:47:03.259Z,0.70
2018-07-02T17:49:32.668Z,0.70
2018-07-02T17:52:01.119Z,1.00
2018-07-02T17:54:29.668Z,0.90
2018-07-02T17:56:58.338Z,0.80
2018-07-02T17:59:26.805Z,0.80
2018-07-02T18:01:56.354Z,0.83
2018-07-02T18:04:24.993Z,0.80
2018-07-02T18:06:56.045Z,0.60
2018-07-02T18:09:26.596Z,0.90
2018-07-02T18:11:55.217Z,0.77
2018-07-02T18:14:23.884Z,0.70
2018-07-02T18:16:52.038Z,0.90
2018-07-02T18:19:20.772Z,0.60
2018-07-02T18:21:49.530Z,0.90
2018-07-02T18:24:17.751Z,0.60
2018-07-02T18:26:46.295Z,0.90
2018-07-02T18:29:14.767Z,0.80
2018-07-02T18:31:44.486Z,0.67
2018-07-02T18:34:13.385Z,0.70
2018-07-02T18:36:42.034Z,0.97
2018-07-02T18:39:12.093Z,0.60
2018-07-02T18:41:40.876Z,0.87
2018-07-02T18:44:09.473Z,0.60
2018-07-02T18:46:38.243Z,0.80
2018-07-02T18:49:06.995Z,0.90
2018-07-02T18:51:35.421Z,0.70
2018-07-02T18:54:03.854Z,0.77
2018-07-02T18:56:32.442Z,0.90
2018-07-02T18:59:01.026Z,0.60
2018-07-02T19:01:29.561Z,0.77
2018-07-02T19:03:57.949Z,0.70
2018-07-02T19:06:26.390Z,0.87
2018-07-02T19:08:54.919Z,0.90
2018-07-02T19:11:23.470Z,0.97
2018-07-02T19:13:51.849Z,0.70
2018-07-02T19:16:20.412Z,0.80
2018-07-02T19:18:48.820Z,0.80
2018-07-02T19:21:17.517Z,0.77
2018-07-02T19:23:45.979Z,0.70
2018-07-02T19:26:14.628Z,0.60
2018-07-02T19:28:43.604Z,0.60
2018-07-02T19:31:12.038Z,0.70
2018-07-02T19:33:40.455Z,0.90
2018-07-02T19:36:08.895Z,0.70
2018-07-02T19:38:37.483Z,0.67
2018-07-02T19:41:06.173Z,0.60
2018-07-02T19:43:34.750Z,0.53
2018-07-02T19:46:03.289Z,0.80
2018-07-02T19:48:31.753Z,0.63
2018-07-02T19:51:00.299Z,0.73
2018-07-02T19:53:28.485Z,0.70
2018-07-02T19:55:56.890Z,0.60
2018-07-02T19:58:25.548Z,0.70
2018-07-02T20:00:54.064Z,0.60
2018-07-02T20:03:22.724Z,0.70
2018-07-02T20:05:51.193Z,0.70
2018-07-02T20:08:19.669Z,0.67
2018-07-02T20:10:48.203Z,0.67
2018-07-02T20:13:16.814Z,0.70
2018-07-02T20:15:45.322Z,0.70
2018-07-02T20:18:13.853Z,0.57
2018-07-02T20:20:43.127Z,0.70
2018-07-02T20:23:11.564Z,0.80
2018-07-02T20:25:40.220Z,0.63
2018-07-02T20:28:08.762Z,0.70
2018-07-02T20:30:37.290Z,0.60
2018-07-02T20:33:05.781Z,0.80
2018-07-02T20:35:34.314Z,0.50
2018-07-02T20:38:02.951Z,0.70
2018-07-02T20:40:31.444Z,0.50
2018-07-02T20:43:00.015Z,0.60
2018-07-02T20:45:28.638Z,0.73
2018-07-02T20:47:57.229Z,0.60
2018-07-02T20:50:25.920Z,0.60
2018-07-02T20:52:54.880Z,0.53
2018-07-02T20:55:23.475Z,0.80
2018-07-02T20:57:52.052Z,0.43
2018-07-02T21:00:20.612Z,0.60
2018-07-02T21:02:49.256Z,0.63
2018-07-02T21:05:17.709Z,0.60
2018-07-02T21:07:46.270Z,0.70
2018-07-02T21:10:14.958Z,0.60
2018-07-02T21:12:44.124Z,0.40
2018-07-02T21:15:12.926Z,0.73
2018-07-02T21:17:41.426Z,0.60
2018-07-02T21:20:09.955Z,0.60
2018-07-02T21:22:38.432Z,0.53
2018-07-02T21:25:06.919Z,0.57
2018-07-02T21:27:35.534Z,0.50
2018-07-02T21:30:04.788Z,0.73
2018-07-02T21:32:33.433Z,0.60
2018-07-02T21:35:01.875Z,0.60
2018-07-02T21:37:30.284Z,0.77
2018-07-02T21:39:58.685Z,0.60
2018-07-02T21:42:27.237Z,0.43
2018-07-02T21:44:55.677Z,0.40
2018-07-02T21:47:25.384Z,0.57
2018-07-02T21:49:54.086Z,0.70
2018-07-02T21:52:22.476Z,0.70
2018-07-02T21:54:50.882Z,0.67
2018-07-02T21:57:19.415Z,0.60
2018-07-02T21:59:47.865Z,0.60
2018-07-02T22:02:16.265Z,0.93
2018-07-02T22:04:44.817Z,0.63
2018-07-02T22:07:13.029Z,0.60
2018-07-02T22:09:41.412Z,0.43
2018-07-02T22:12:09.832Z,0.40
2018-07-02T22:14:38.426Z,0.60
2018-07-02T22:17:06.832Z,0.60
2018-07-02T22:19:38.429Z,0.53
2018-07-02T22:22:06.925Z,0.50
2018-07-02T22:24:35.338Z,0.60
2018-07-02T22:27:03.741Z,0.60
2018-07-02T22:29:32.145Z,0.70
2018-07-02T22:32:00.557Z,0.53
2018-07-02T22:34:29.043Z,0.60
2018-07-02T22:36:58.033Z,0.60
2018-07-02T22:39:26.550Z,0.60
2018-07-02T22:41:55.157Z,0.37
2018-07-02T22:44:23.635Z,0.50
2018-07-02T22:46:53.935Z,0.30
2018-07-02T22:49:22.748Z,0.50
2018-07-02T22:51:51.822Z,0.43
2018-07-02T22:54:21.255Z,0.40
2018-07-02T22:56:49.760Z,0.40
2018-07-02T22:59:17.871Z,0.60
2018-07-02T23:01:46.474Z,0.60
2018-07-02T23:04:14.897Z,0.60
2018-07-02T23:06:43.345Z,0.40
2018-07-02T23:09:11.525Z,0.50
2018-07-02T23:11:39.989Z,0.40
2018-07-02T23:14:08.521Z,0.40
2018-07-02T23:16:36.991Z,0.70
2018-07-02T23:19:05.429Z,0.40
2018-07-02T23:21:33.890Z,0.50
2018-07-02T23:24:02.169Z,0.40
2018-07-02T23:26:30.806Z,0.47
2018-07-02T23:28:58.929Z,0.50
2018-07-02T23:31:27.400Z,0.50
2018-07-02T23:33:55.564Z,0.70
2018-07-02T23:36:23.973Z,0.60
2018-07-02T23:38:52.512Z,0.60
2018-07-02T23:41:20.985Z,0.37
2018-07-02T23:43:49.408Z,0.47
2018-07-02T23:46:17.888Z,0.50
2018-07-02T23:48:46.365Z,0.50
2018-07-02T23:51:14.777Z,0.43
2018-07-02T23:53:43.245Z,0.50
2018-07-02T23:56:11.682Z,0.50
2018-07-02T23:58:40.136Z,0.70
